sensor_id;sensor_type;location;lat;lon;timestamp;P1;durP1;ratioP1;P2;durP2;ratioP2
13034;SDS011;6584;48.022;11.810;2022-08-05T00:01:16;3.85;;;3.20;;
13034;SDS011;6584;48.022;11.810;2022-08-05T00:03:44;4.50;;;3.35;;
13034;SDS011;6584;48.022;11.810;2022-08-05T00:06:10;3.83;;;3.50;;
13034;SDS011;6584;48.022;11.810;2022-08-05T00:08:36;3.95;;;3.63;;
13034;SDS011;6584;48.022;11.810;2022-08-05T00:11:04;4.07;;;3.65;;
13034;SDS011;6584;48.022;11.810;2022-08-05T00:13:32;4.28;;;3.88;;
13034;SDS011;6584;48.022;11.810;2022-08-05T00:15:58;4.47;;;3.78;;
13034;SDS011;6584;48.022;11.810;2022-08-05T00:18:24;3.97;;;3.58;;
13034;SDS011;6584;48.022;11.810;2022-08-05T00:20:50;3.78;;;3.47;;
13034;SDS011;6584;48.022;11.810;2022-08-05T00:23:16;3.72;;;3.42;;
13034;SDS011;6584;48.022;11.810;2022-08-05T00:25:42;4.68;;;3.45;;
13034;SDS011;6584;48.022;11.810;2022-08-05T00:28:08;4.55;;;3.70;;
13034;SDS011;6584;48.022;11.810;2022-08-05T00:30:33;3.70;;;3.40;;
13034;SDS011;6584;48.022;11.810;2022-08-05T00:32:59;3.50;;;3.20;;
13034;SDS011;6584;48.022;11.810;2022-08-05T00:35:24;3.85;;;3.55;;
13034;SDS011;6584;48.022;11.810;2022-08-05T00:37:50;3.65;;;3.35;;
13034;SDS011;6584;48.022;11.810;2022-08-05T00:40:16;4.30;;;3.42;;
13034;SDS011;6584;48.022;11.810;2022-08-05T00:42:42;3.75;;;3.40;;
13034;SDS011;6584;48.022;11.810;2022-08-05T00:45:08;5.10;;;3.33;;
13034;SDS011;6584;48.022;11.810;2022-08-05T00:47:34;5.10;;;3.88;;
13034;SDS011;6584;48.022;11.810;2022-08-05T00:50:00;4.15;;;3.85;;
13034;SDS011;6584;48.022;11.810;2022-08-05T00:52:25;4.53;;;4.00;;
13034;SDS011;6584;48.022;11.810;2022-08-05T00:54:51;4.00;;;3.70;;
13034;SDS011;6584;48.022;11.810;2022-08-05T00:57:16;4.25;;;3.60;;
13034;SDS011;6584;48.022;11.810;2022-08-05T00:59:42;5.43;;;3.58;;
13034;SDS011;6584;48.022;11.810;2022-08-05T01:02:08;3.88;;;3.58;;
13034;SDS011;6584;48.022;11.810;2022-08-05T01:04:34;4.95;;;3.50;;
13034;SDS011;6584;48.022;11.810;2022-08-05T01:06:59;3.97;;;3.20;;
13034;SDS011;6584;48.022;11.810;2022-08-05T01:09:25;3.55;;;3.25;;
13034;SDS011;6584;48.022;11.810;2022-08-05T01:11:51;5.03;;;3.50;;
13034;SDS011;6584;48.022;11.810;2022-08-05T01:14:23;3.55;;;3.25;;
13034;SDS011;6584;48.022;11.810;2022-08-05T01:16:57;3.80;;;3.47;;
13034;SDS011;6584;48.022;11.810;2022-08-05T01:19:38;5.55;;;3.60;;
13034;SDS011;6584;48.022;11.810;2022-08-05T01:22:22;3.90;;;3.60;;
13034;SDS011;6584;48.022;11.810;2022-08-05T01:25:02;3.90;;;3.47;;
13034;SDS011;6584;48.022;11.810;2022-08-05T01:30:36;3.63;;;3.33;;
13034;SDS011;6584;48.022;11.810;2022-08-05T01:33:06;3.75;;;3.45;;
13034;SDS011;6584;48.022;11.810;2022-08-05T01:35:35;3.95;;;3.53;;
13034;SDS011;6584;48.022;11.810;2022-08-05T01:38:03;4.05;;;3.45;;
13034;SDS011;6584;48.022;11.810;2022-08-05T01:40:30;4.00;;;3.70;;
13034;SDS011;6584;48.022;11.810;2022-08-05T01:42:58;4.82;;;3.55;;
13034;SDS011;6584;48.022;11.810;2022-08-05T01:45:26;4.32;;;3.38;;
13034;SDS011;6584;48.022;11.810;2022-08-05T01:47:53;3.92;;;3.45;;
13034;SDS011;6584;48.022;11.810;2022-08-05T01:50:21;3.83;;;3.53;;
13034;SDS011;6584;48.022;11.810;2022-08-05T01:52:50;3.72;;;3.42;;
13034;SDS011;6584;48.022;11.810;2022-08-05T01:55:19;5.10;;;3.70;;
13034;SDS011;6584;48.022;11.810;2022-08-05T01:57:48;3.88;;;3.22;;
13034;SDS011;6584;48.022;11.810;2022-08-05T02:00:16;4.00;;;3.70;;
13034;SDS011;6584;48.022;11.810;2022-08-05T02:02:53;4.82;;;3.80;;
13034;SDS011;6584;48.022;11.810;2022-08-05T02:05:22;3.70;;;3.40;;
13034;SDS011;6584;48.022;11.810;2022-08-05T02:07:52;3.95;;;3.53;;
13034;SDS011;6584;48.022;11.810;2022-08-05T02:10:18;3.70;;;3.40;;
13034;SDS011;6584;48.022;11.810;2022-08-05T02:12:59;3.90;;;3.60;;
13034;SDS011;6584;48.022;11.810;2022-08-05T02:15:33;3.65;;;3.35;;
13034;SDS011;6584;48.022;11.810;2022-08-05T02:18:04;3.50;;;3.10;;
13034;SDS011;6584;48.022;11.810;2022-08-05T02:20:39;4.13;;;3.60;;
13034;SDS011;6584;48.022;11.810;2022-08-05T02:23:10;3.92;;;3.30;;
13034;SDS011;6584;48.022;11.810;2022-08-05T02:25:38;4.30;;;3.95;;
13034;SDS011;6584;48.022;11.810;2022-08-05T02:28:07;3.42;;;3.15;;
13034;SDS011;6584;48.022;11.810;2022-08-05T02:30:41;3.90;;;3.50;;
13034;SDS011;6584;48.022;11.810;2022-08-05T02:33:09;3.45;;;3.15;;
13034;SDS011;6584;48.022;11.810;2022-08-05T02:35:40;3.80;;;3.50;;
13034;SDS011;6584;48.022;11.810;2022-08-05T02:38:06;3.65;;;3.35;;
13034;SDS011;6584;48.022;11.810;2022-08-05T02:40:34;3.80;;;3.28;;
13034;SDS011;6584;48.022;11.810;2022-08-05T02:43:01;4.20;;;3.78;;
13034;SDS011;6584;48.022;11.810;2022-08-05T02:45:28;3.72;;;3.30;;
13034;SDS011;6584;48.022;11.810;2022-08-05T02:47:54;3.70;;;3.40;;
13034;SDS011;6584;48.022;11.810;2022-08-05T02:50:21;3.75;;;3.45;;
13034;SDS011;6584;48.022;11.810;2022-08-05T02:52:48;3.65;;;3.35;;
13034;SDS011;6584;48.022;11.810;2022-08-05T02:55:16;4.13;;;3.83;;
13034;SDS011;6584;48.022;11.810;2022-08-05T02:57:41;3.60;;;3.30;;
13034;SDS011;6584;48.022;11.810;2022-08-05T03:00:11;3.70;;;3.40;;
13034;SDS011;6584;48.022;11.810;2022-08-05T03:02:39;4.45;;;3.58;;
13034;SDS011;6584;48.022;11.810;2022-08-05T03:05:07;4.47;;;3.85;;
13034;SDS011;6584;48.022;11.810;2022-08-05T03:07:34;4.18;;;3.55;;
13034;SDS011;6584;48.022;11.810;2022-08-05T03:10:00;3.90;;;3.60;;
13034;SDS011;6584;48.022;11.810;2022-08-05T03:12:30;4.22;;;3.50;;
13034;SDS011;6584;48.022;11.810;2022-08-05T03:15:03;4.38;;;4.00;;
13034;SDS011;6584;48.022;11.810;2022-08-05T03:17:30;3.40;;;3.20;;
13034;SDS011;6584;48.022;11.810;2022-08-05T03:19:56;3.78;;;3.47;;
13034;SDS011;6584;48.022;11.810;2022-08-05T03:22:22;4.20;;;3.80;;
13034;SDS011;6584;48.022;11.810;2022-08-05T03:24:48;4.63;;;3.65;;
13034;SDS011;6584;48.022;11.810;2022-08-05T03:27:15;3.83;;;3.53;;
13034;SDS011;6584;48.022;11.810;2022-08-05T03:29:40;5.13;;;4.05;;
13034;SDS011;6584;48.022;11.810;2022-08-05T03:32:06;4.03;;;3.70;;
13034;SDS011;6584;48.022;11.810;2022-08-05T03:34:33;4.05;;;3.65;;
13034;SDS011;6584;48.022;11.810;2022-08-05T03:36:59;4.43;;;3.50;;
13034;SDS011;6584;48.022;11.810;2022-08-05T03:39:25;3.78;;;3.47;;
13034;SDS011;6584;48.022;11.810;2022-08-05T03:41:51;3.60;;;3.30;;
13034;SDS011;6584;48.022;11.810;2022-08-05T03:44:16;3.90;;;3.60;;
13034;SDS011;6584;48.022;11.810;2022-08-05T03:46:42;3.80;;;3.50;;
13034;SDS011;6584;48.022;11.810;2022-08-05T03:49:07;3.88;;;3.47;;
13034;SDS011;6584;48.022;11.810;2022-08-05T03:54:30;3.97;;;3.67;;
13034;SDS011;6584;48.022;11.810;2022-08-05T03:57:02;4.30;;;3.90;;
13034;SDS011;6584;48.022;11.810;2022-08-05T03:59:37;4.18;;;3.80;;
13034;SDS011;6584;48.022;11.810;2022-08-05T04:02:06;3.60;;;3.30;;
13034;SDS011;6584;48.022;11.810;2022-08-05T04:04:34;4.95;;;3.67;;
13034;SDS011;6584;48.022;11.810;2022-08-05T04:06:59;3.67;;;3.38;;
13034;SDS011;6584;48.022;11.810;2022-08-05T04:09:27;3.90;;;3.60;;
13034;SDS011;6584;48.022;11.810;2022-08-05T04:11:54;4.93;;;4.22;;
13034;SDS011;6584;48.022;11.810;2022-08-05T04:14:20;5.45;;;3.88;;
13034;SDS011;6584;48.022;11.810;2022-08-05T04:16:46;5.07;;;4.00;;
13034;SDS011;6584;48.022;11.810;2022-08-05T04:19:12;4.32;;;3.90;;
13034;SDS011;6584;48.022;11.810;2022-08-05T04:21:38;4.00;;;3.70;;
13034;SDS011;6584;48.022;11.810;2022-08-05T04:24:04;5.47;;;3.72;;
13034;SDS011;6584;48.022;11.810;2022-08-05T04:26:30;3.90;;;3.60;;
13034;SDS011;6584;48.022;11.810;2022-08-05T04:28:56;4.07;;;3.70;;
13034;SDS011;6584;48.022;11.810;2022-08-05T04:31:21;4.28;;;3.88;;
13034;SDS011;6584;48.022;11.810;2022-08-05T04:33:47;4.20;;;3.90;;
13034;SDS011;6584;48.022;11.810;2022-08-05T04:36:14;4.25;;;3.78;;
13034;SDS011;6584;48.022;11.810;2022-08-05T04:38:42;4.53;;;3.85;;
13034;SDS011;6584;48.022;11.810;2022-08-05T04:41:08;3.90;;;3.60;;
13034;SDS011;6584;48.022;11.810;2022-08-05T04:43:34;4.55;;;4.10;;
13034;SDS011;6584;48.022;11.810;2022-08-05T04:46:00;4.65;;;4.25;;
13034;SDS011;6584;48.022;11.810;2022-08-05T04:48:27;3.95;;;3.63;;
13034;SDS011;6584;48.022;11.810;2022-08-05T04:50:52;4.82;;;3.75;;
13034;SDS011;6584;48.022;11.810;2022-08-05T04:53:18;5.38;;;4.10;;
13034;SDS011;6584;48.022;11.810;2022-08-05T04:55:44;5.95;;;4.18;;
13034;SDS011;6584;48.022;11.810;2022-08-05T04:58:11;4.05;;;3.75;;
13034;SDS011;6584;48.022;11.810;2022-08-05T05:00:39;7.28;;;4.60;;
13034;SDS011;6584;48.022;11.810;2022-08-05T05:03:05;6.60;;;4.20;;
13034;SDS011;6584;48.022;11.810;2022-08-05T05:05:32;4.65;;;4.25;;
13034;SDS011;6584;48.022;11.810;2022-08-05T05:08:02;8.35;;;4.50;;
13034;SDS011;6584;48.022;11.810;2022-08-05T05:10:30;4.68;;;4.28;;
13034;SDS011;6584;48.022;11.810;2022-08-05T05:12:58;4.38;;;3.97;;
13034;SDS011;6584;48.022;11.810;2022-08-05T05:15:24;4.95;;;3.78;;
13034;SDS011;6584;48.022;11.810;2022-08-05T05:17:50;4.78;;;4.28;;
13034;SDS011;6584;48.022;11.810;2022-08-05T05:20:15;5.05;;;4.05;;
13034;SDS011;6584;48.022;11.810;2022-08-05T05:22:41;6.40;;;4.20;;
13034;SDS011;6584;48.022;11.810;2022-08-05T05:25:07;4.65;;;4.22;;
13034;SDS011;6584;48.022;11.810;2022-08-05T05:27:33;4.20;;;3.90;;
13034;SDS011;6584;48.022;11.810;2022-08-05T05:30:00;4.38;;;3.83;;
13034;SDS011;6584;48.022;11.810;2022-08-05T05:32:26;4.13;;;3.70;;
13034;SDS011;6584;48.022;11.810;2022-08-05T05:34:52;6.18;;;3.83;;
13034;SDS011;6584;48.022;11.810;2022-08-05T05:37:17;3.80;;;3.50;;
13034;SDS011;6584;48.022;11.810;2022-08-05T05:39:43;4.65;;;3.80;;
13034;SDS011;6584;48.022;11.810;2022-08-05T05:42:09;5.95;;;3.60;;
13034;SDS011;6584;48.022;11.810;2022-08-05T05:44:34;4.05;;;3.38;;
13034;SDS011;6584;48.022;11.810;2022-08-05T05:47:00;5.40;;;3.28;;
13034;SDS011;6584;48.022;11.810;2022-08-05T05:49:26;4.53;;;3.42;;
13034;SDS011;6584;48.022;11.810;2022-08-05T05:51:54;4.53;;;3.17;;
13034;SDS011;6584;48.022;11.810;2022-08-05T05:54:20;3.67;;;3.38;;
13034;SDS011;6584;48.022;11.810;2022-08-05T05:56:46;4.68;;;3.80;;
13034;SDS011;6584;48.022;11.810;2022-08-05T05:59:11;3.47;;;3.28;;
13034;SDS011;6584;48.022;11.810;2022-08-05T06:01:37;4.53;;;3.72;;
13034;SDS011;6584;48.022;11.810;2022-08-05T06:04:08;3.75;;;3.45;;
13034;SDS011;6584;48.022;11.810;2022-08-05T06:06:34;3.20;;;3.00;;
13034;SDS011;6584;48.022;11.810;2022-08-05T06:09:01;3.60;;;3.30;;
13034;SDS011;6584;48.022;11.810;2022-08-05T06:11:28;3.95;;;3.38;;
13034;SDS011;6584;48.022;11.810;2022-08-05T06:13:53;3.70;;;3.40;;
13034;SDS011;6584;48.022;11.810;2022-08-05T06:16:19;4.78;;;3.53;;
13034;SDS011;6584;48.022;11.810;2022-08-05T06:18:44;6.53;;;3.05;;
13034;SDS011;6584;48.022;11.810;2022-08-05T06:21:10;3.95;;;3.38;;
13034;SDS011;6584;48.022;11.810;2022-08-05T06:23:36;3.42;;;3.13;;
13034;SDS011;6584;48.022;11.810;2022-08-05T06:26:01;3.80;;;3.30;;
13034;SDS011;6584;48.022;11.810;2022-08-05T06:28:27;3.40;;;3.10;;
13034;SDS011;6584;48.022;11.810;2022-08-05T06:30:52;3.47;;;3.17;;
13034;SDS011;6584;48.022;11.810;2022-08-05T06:33:18;3.85;;;3.55;;
13034;SDS011;6584;48.022;11.810;2022-08-05T06:35:43;3.60;;;3.05;;
13034;SDS011;6584;48.022;11.810;2022-08-05T06:38:09;3.33;;;3.00;;
13034;SDS011;6584;48.022;11.810;2022-08-05T06:40:34;4.72;;;3.30;;
13034;SDS011;6584;48.022;11.810;2022-08-05T06:43:00;3.63;;;3.10;;
13034;SDS011;6584;48.022;11.810;2022-08-05T06:45:25;4.63;;;3.05;;
13034;SDS011;6584;48.022;11.810;2022-08-05T06:47:51;5.13;;;3.20;;
13034;SDS011;6584;48.022;11.810;2022-08-05T06:50:16;3.33;;;3.10;;
13034;SDS011;6584;48.022;11.810;2022-08-05T06:52:42;5.32;;;3.45;;
13034;SDS011;6584;48.022;11.810;2022-08-05T06:55:08;7.25;;;3.58;;
13034;SDS011;6584;48.022;11.810;2022-08-05T06:57:33;7.45;;;3.30;;
13034;SDS011;6584;48.022;11.810;2022-08-05T06:59:59;5.80;;;3.22;;
13034;SDS011;6584;48.022;11.810;2022-08-05T07:02:26;5.78;;;3.40;;
13034;SDS011;6584;48.022;11.810;2022-08-05T07:04:52;4.00;;;3.33;;
13034;SDS011;6584;48.022;11.810;2022-08-05T07:07:18;3.20;;;3.00;;
13034;SDS011;6584;48.022;11.810;2022-08-05T07:09:43;3.50;;;3.20;;
13034;SDS011;6584;48.022;11.810;2022-08-05T07:12:09;3.75;;;3.40;;
13034;SDS011;6584;48.022;11.810;2022-08-05T07:14:54;3.20;;;3.00;;
13034;SDS011;6584;48.022;11.810;2022-08-05T07:17:46;3.95;;;3.00;;
13034;SDS011;6584;48.022;11.810;2022-08-05T07:20:11;3.72;;;3.30;;
13034;SDS011;6584;48.022;11.810;2022-08-05T07:22:37;3.53;;;3.22;;
13034;SDS011;6584;48.022;11.810;2022-08-05T07:25:02;3.45;;;3.15;;
13034;SDS011;6584;48.022;11.810;2022-08-05T07:27:28;5.32;;;3.60;;
13034;SDS011;6584;48.022;11.810;2022-08-05T07:29:56;3.70;;;3.38;;
13034;SDS011;6584;48.022;11.810;2022-08-05T07:32:22;3.50;;;3.20;;
13034;SDS011;6584;48.022;11.810;2022-08-05T07:34:48;3.60;;;3.30;;
13034;SDS011;6584;48.022;11.810;2022-08-05T07:37:14;3.92;;;3.50;;
13034;SDS011;6584;48.022;11.810;2022-08-05T07:39:39;3.88;;;3.50;;
13034;SDS011;6584;48.022;11.810;2022-08-05T07:42:05;4.07;;;3.20;;
13034;SDS011;6584;48.022;11.810;2022-08-05T07:44:30;6.18;;;3.33;;
13034;SDS011;6584;48.022;11.810;2022-08-05T07:46:56;4.53;;;3.50;;
13034;SDS011;6584;48.022;11.810;2022-08-05T07:49:22;3.72;;;3.30;;
13034;SDS011;6584;48.022;11.810;2022-08-05T07:51:48;5.85;;;3.45;;
13034;SDS011;6584;48.022;11.810;2022-08-05T07:54:13;3.78;;;3.47;;
13034;SDS011;6584;48.022;11.810;2022-08-05T07:56:39;3.97;;;3.58;;
13034;SDS011;6584;48.022;11.810;2022-08-05T07:59:04;3.40;;;3.10;;
13034;SDS011;6584;48.022;11.810;2022-08-05T08:01:30;4.53;;;3.30;;
13034;SDS011;6584;48.022;11.810;2022-08-05T08:03:55;3.65;;;3.10;;
13034;SDS011;6584;48.022;11.810;2022-08-05T08:06:21;3.50;;;3.22;;
13034;SDS011;6584;48.022;11.810;2022-08-05T08:08:47;4.65;;;3.25;;
13034;SDS011;6584;48.022;11.810;2022-08-05T08:11:12;9.10;;;3.60;;
13034;SDS011;6584;48.022;11.810;2022-08-05T08:13:39;3.70;;;3.28;;
13034;SDS011;6584;48.022;11.810;2022-08-05T08:16:05;9.07;;;3.90;;
13034;SDS011;6584;48.022;11.810;2022-08-05T08:18:31;9.82;;;3.85;;
13034;SDS011;6584;48.022;11.810;2022-08-05T08:20:57;4.40;;;3.50;;
13034;SDS011;6584;48.022;11.810;2022-08-05T08:23:22;4.85;;;3.17;;
13034;SDS011;6584;48.022;11.810;2022-08-05T08:25:48;4.50;;;3.47;;
13034;SDS011;6584;48.022;11.810;2022-08-05T08:28:13;4.47;;;3.63;;
13034;SDS011;6584;48.022;11.810;2022-08-05T08:30:39;5.57;;;3.67;;
13034;SDS011;6584;48.022;11.810;2022-08-05T08:33:11;6.88;;;3.95;;
13034;SDS011;6584;48.022;11.810;2022-08-05T08:35:36;4.63;;;3.65;;
13034;SDS011;6584;48.022;11.810;2022-08-05T08:38:02;6.28;;;3.60;;
13034;SDS011;6584;48.022;11.810;2022-08-05T08:40:30;4.40;;;3.65;;
13034;SDS011;6584;48.022;11.810;2022-08-05T08:42:58;10.38;;;4.15;;
13034;SDS011;6584;48.022;11.810;2022-08-05T08:45:24;4.72;;;3.70;;
13034;SDS011;6584;48.022;11.810;2022-08-05T08:47:50;5.03;;;3.70;;
13034;SDS011;6584;48.022;11.810;2022-08-05T08:50:18;5.95;;;3.65;;
13034;SDS011;6584;48.022;11.810;2022-08-05T08:52:45;4.57;;;3.85;;
13034;SDS011;6584;48.022;11.810;2022-08-05T08:55:21;5.50;;;3.92;;
13034;SDS011;6584;48.022;11.810;2022-08-05T08:57:47;6.30;;;3.88;;
13034;SDS011;6584;48.022;11.810;2022-08-05T09:00:13;5.85;;;3.70;;
13034;SDS011;6584;48.022;11.810;2022-08-05T09:02:39;7.82;;;3.92;;
13034;SDS011;6584;48.022;11.810;2022-08-05T09:05:04;4.97;;;4.15;;
13034;SDS011;6584;48.022;11.810;2022-08-05T09:07:30;4.25;;;3.90;;
13034;SDS011;6584;48.022;11.810;2022-08-05T09:09:56;4.78;;;4.20;;
13034;SDS011;6584;48.022;11.810;2022-08-05T09:12:22;8.93;;;4.15;;
13034;SDS011;6584;48.022;11.810;2022-08-05T09:14:48;5.55;;;4.05;;
13034;SDS011;6584;48.022;11.810;2022-08-05T09:17:13;6.45;;;4.30;;
13034;SDS011;6584;48.022;11.810;2022-08-05T09:19:40;5.22;;;4.35;;
13034;SDS011;6584;48.022;11.810;2022-08-05T09:22:06;7.22;;;4.40;;
13034;SDS011;6584;48.022;11.810;2022-08-05T09:24:32;4.82;;;4.18;;
13034;SDS011;6584;48.022;11.810;2022-08-05T09:27:00;4.93;;;4.20;;
13034;SDS011;6584;48.022;11.810;2022-08-05T09:32:06;7.78;;;4.75;;
13034;SDS011;6584;48.022;11.810;2022-08-05T09:34:52;9.23;;;4.30;;
13034;SDS011;6584;48.022;11.810;2022-08-05T09:37:19;9.88;;;4.35;;
13034;SDS011;6584;48.022;11.810;2022-08-05T09:39:50;8.75;;;4.70;;
13034;SDS011;6584;48.022;11.810;2022-08-05T09:42:19;8.00;;;4.68;;
13034;SDS011;6584;48.022;11.810;2022-08-05T09:44:50;5.45;;;4.80;;
13034;SDS011;6584;48.022;11.810;2022-08-05T09:47:18;7.90;;;4.50;;
13034;SDS011;6584;48.022;11.810;2022-08-05T09:49:52;8.95;;;4.78;;
13034;SDS011;6584;48.022;11.810;2022-08-05T09:52:24;7.60;;;4.15;;
13034;SDS011;6584;48.022;11.810;2022-08-05T09:57:37;11.95;;;5.47;;
13034;SDS011;6584;48.022;11.810;2022-08-05T10:02:42;8.45;;;4.68;;
13034;SDS011;6584;48.022;11.810;2022-08-05T10:05:13;11.30;;;4.72;;
13034;SDS011;6584;48.022;11.810;2022-08-05T10:07:44;7.43;;;4.30;;
13034;SDS011;6584;48.022;11.810;2022-08-05T10:10:13;9.27;;;4.60;;
13034;SDS011;6584;48.022;11.810;2022-08-05T10:12:44;34.03;;;5.22;;
13034;SDS011;6584;48.022;11.810;2022-08-05T10:15:12;7.43;;;4.30;;
13034;SDS011;6584;48.022;11.810;2022-08-05T10:17:38;9.10;;;4.22;;
13034;SDS011;6584;48.022;11.810;2022-08-05T10:20:05;8.55;;;4.07;;
13034;SDS011;6584;48.022;11.810;2022-08-05T10:22:37;8.93;;;4.28;;
13034;SDS011;6584;48.022;11.810;2022-08-05T10:25:04;10.13;;;4.60;;
13034;SDS011;6584;48.022;11.810;2022-08-05T10:27:30;7.47;;;4.40;;
13034;SDS011;6584;48.022;11.810;2022-08-05T10:29:56;12.75;;;4.18;;
13034;SDS011;6584;48.022;11.810;2022-08-05T10:32:22;7.10;;;4.13;;
13034;SDS011;6584;48.022;11.810;2022-08-05T10:34:47;4.65;;;4.15;;
13034;SDS011;6584;48.022;11.810;2022-08-05T10:37:14;14.00;;;4.30;;
13034;SDS011;6584;48.022;11.810;2022-08-05T10:39:41;6.28;;;4.28;;
13034;SDS011;6584;48.022;11.810;2022-08-05T10:42:17;8.48;;;4.28;;
13034;SDS011;6584;48.022;11.810;2022-08-05T10:44:47;11.63;;;4.68;;
13034;SDS011;6584;48.022;11.810;2022-08-05T10:47:14;10.52;;;4.15;;
13034;SDS011;6584;48.022;11.810;2022-08-05T10:52:42;10.95;;;4.00;;
13034;SDS011;6584;48.022;11.810;2022-08-05T10:55:11;8.15;;;3.78;;
13034;SDS011;6584;48.022;11.810;2022-08-05T10:57:38;5.65;;;4.32;;
13034;SDS011;6584;48.022;11.810;2022-08-05T11:00:15;12.77;;;4.40;;
13034;SDS011;6584;48.022;11.810;2022-08-05T11:05:33;7.25;;;3.72;;
13034;SDS011;6584;48.022;11.810;2022-08-05T11:08:04;8.77;;;3.75;;
13034;SDS011;6584;48.022;11.810;2022-08-05T11:10:34;7.55;;;4.13;;
13034;SDS011;6584;48.022;11.810;2022-08-05T11:13:01;5.03;;;3.97;;
13034;SDS011;6584;48.022;11.810;2022-08-05T11:15:30;7.15;;;3.80;;
13034;SDS011;6584;48.022;11.810;2022-08-05T11:20:53;6.38;;;4.10;;
13034;SDS011;6584;48.022;11.810;2022-08-05T11:26:03;8.68;;;4.25;;
13034;SDS011;6584;48.022;11.810;2022-08-05T11:33:27;5.13;;;3.70;;
13034;SDS011;6584;48.022;11.810;2022-08-05T11:36:07;5.85;;;3.70;;
13034;SDS011;6584;48.022;11.810;2022-08-05T11:41:21;6.10;;;4.00;;
13034;SDS011;6584;48.022;11.810;2022-08-05T11:43:57;10.23;;;3.67;;
13034;SDS011;6584;48.022;11.810;2022-08-05T11:46:27;7.03;;;3.78;;
13034;SDS011;6584;48.022;11.810;2022-08-05T11:48:55;11.20;;;3.72;;
13034;SDS011;6584;48.022;11.810;2022-08-05T11:51:21;7.32;;;3.70;;
13034;SDS011;6584;48.022;11.810;2022-08-05T11:53:48;10.55;;;3.60;;
13034;SDS011;6584;48.022;11.810;2022-08-05T11:56:14;5.38;;;3.80;;
13034;SDS011;6584;48.022;11.810;2022-08-05T11:58:41;6.18;;;3.92;;
13034;SDS011;6584;48.022;11.810;2022-08-05T12:06:14;5.38;;;3.60;;
13034;SDS011;6584;48.022;11.810;2022-08-05T12:08:44;5.45;;;3.78;;
13034;SDS011;6584;48.022;11.810;2022-08-05T12:11:18;7.10;;;3.65;;
13034;SDS011;6584;48.022;11.810;2022-08-05T12:14:19;5.38;;;3.40;;
13034;SDS011;6584;48.022;11.810;2022-08-05T12:16:38;6.70;;;3.63;;
13034;SDS011;6584;48.022;11.810;2022-08-05T12:19:06;4.28;;;3.80;;
13034;SDS011;6584;48.022;11.810;2022-08-05T12:21:35;5.90;;;3.60;;
13034;SDS011;6584;48.022;11.810;2022-08-05T12:24:17;4.38;;;3.50;;
13034;SDS011;6584;48.022;11.810;2022-08-05T12:26:45;4.97;;;3.58;;
13034;SDS011;6584;48.022;11.810;2022-08-05T12:29:15;10.18;;;3.80;;
13034;SDS011;6584;48.022;11.810;2022-08-05T12:31:48;8.15;;;3.95;;
13034;SDS011;6584;48.022;11.810;2022-08-05T12:34:18;6.85;;;3.92;;
13034;SDS011;6584;48.022;11.810;2022-08-05T12:36:55;5.88;;;3.78;;
13034;SDS011;6584;48.022;11.810;2022-08-05T12:39:23;5.88;;;3.67;;
13034;SDS011;6584;48.022;11.810;2022-08-05T12:41:49;9.18;;;3.80;;
13034;SDS011;6584;48.022;11.810;2022-08-05T12:44:16;8.60;;;3.78;;
13034;SDS011;6584;48.022;11.810;2022-08-05T12:46:50;8.43;;;3.60;;
13034;SDS011;6584;48.022;11.810;2022-08-05T12:49:16;4.50;;;3.83;;
13034;SDS011;6584;48.022;11.810;2022-08-05T12:51:54;6.88;;;3.90;;
13034;SDS011;6584;48.022;11.810;2022-08-05T12:56:49;9.52;;;3.85;;
13034;SDS011;6584;48.022;11.810;2022-08-05T12:59:18;5.57;;;3.55;;
13034;SDS011;6584;48.022;11.810;2022-08-05T13:01:55;4.78;;;4.03;;
13034;SDS011;6584;48.022;11.810;2022-08-05T13:04:26;6.20;;;3.80;;
13034;SDS011;6584;48.022;11.810;2022-08-05T13:06:55;10.68;;;4.00;;
13034;SDS011;6584;48.022;11.810;2022-08-05T13:09:22;7.07;;;3.92;;
13034;SDS011;6584;48.022;11.810;2022-08-05T13:11:48;5.43;;;3.35;;
13034;SDS011;6584;48.022;11.810;2022-08-05T13:14:21;9.73;;;3.97;;
13034;SDS011;6584;48.022;11.810;2022-08-05T13:16:52;5.07;;;3.75;;
13034;SDS011;6584;48.022;11.810;2022-08-05T13:19:24;5.35;;;3.60;;
13034;SDS011;6584;48.022;11.810;2022-08-05T13:21:51;5.90;;;3.35;;
13034;SDS011;6584;48.022;11.810;2022-08-05T13:24:18;6.85;;;3.70;;
13034;SDS011;6584;48.022;11.810;2022-08-05T13:26:45;5.88;;;3.80;;
13034;SDS011;6584;48.022;11.810;2022-08-05T13:29:11;7.05;;;4.43;;
13034;SDS011;6584;48.022;11.810;2022-08-05T13:31:37;5.85;;;3.55;;
13034;SDS011;6584;48.022;11.810;2022-08-05T13:34:03;4.68;;;3.38;;
13034;SDS011;6584;48.022;11.810;2022-08-05T13:36:28;5.55;;;3.42;;
13034;SDS011;6584;48.022;11.810;2022-08-05T13:38:54;3.95;;;3.40;;
13034;SDS011;6584;48.022;11.810;2022-08-05T13:41:20;3.88;;;3.58;;
13034;SDS011;6584;48.022;11.810;2022-08-05T13:43:45;5.68;;;3.80;;
13034;SDS011;6584;48.022;11.810;2022-08-05T13:46:11;7.05;;;3.63;;
13034;SDS011;6584;48.022;11.810;2022-08-05T13:48:37;5.50;;;3.78;;
13034;SDS011;6584;48.022;11.810;2022-08-05T13:51:06;3.92;;;3.55;;
13034;SDS011;6584;48.022;11.810;2022-08-05T13:53:33;6.80;;;4.03;;
13034;SDS011;6584;48.022;11.810;2022-08-05T13:55:59;4.00;;;3.60;;
13034;SDS011;6584;48.022;11.810;2022-08-05T13:58:26;4.15;;;3.63;;
13034;SDS011;6584;48.022;11.810;2022-08-05T14:00:52;5.00;;;3.60;;
13034;SDS011;6584;48.022;11.810;2022-08-05T14:03:17;3.83;;;3.53;;
13034;SDS011;6584;48.022;11.810;2022-08-05T14:05:43;3.78;;;3.38;;
13034;SDS011;6584;48.022;11.810;2022-08-05T14:08:08;7.07;;;3.80;;
13034;SDS011;6584;48.022;11.810;2022-08-05T14:10:34;4.45;;;3.63;;
13034;SDS011;6584;48.022;11.810;2022-08-05T14:12:59;4.75;;;3.38;;
13034;SDS011;6584;48.022;11.810;2022-08-05T14:15:25;3.70;;;3.40;;
13034;SDS011;6584;48.022;11.810;2022-08-05T14:17:52;9.02;;;3.60;;
13034;SDS011;6584;48.022;11.810;2022-08-05T14:20:17;7.55;;;3.80;;
13034;SDS011;6584;48.022;11.810;2022-08-05T14:22:43;6.15;;;3.88;;
13034;SDS011;6584;48.022;11.810;2022-08-05T14:25:09;4.43;;;3.70;;
13034;SDS011;6584;48.022;11.810;2022-08-05T14:27:35;4.20;;;3.80;;
13034;SDS011;6584;48.022;11.810;2022-08-05T14:30:01;5.93;;;3.83;;
13034;SDS011;6584;48.022;11.810;2022-08-05T14:32:27;7.50;;;3.60;;
13034;SDS011;6584;48.022;11.810;2022-08-05T14:34:55;6.70;;;3.70;;
13034;SDS011;6584;48.022;11.810;2022-08-05T14:37:20;6.07;;;3.85;;
13034;SDS011;6584;48.022;11.810;2022-08-05T14:39:46;6.32;;;3.80;;
13034;SDS011;6584;48.022;11.810;2022-08-05T14:42:12;5.40;;;3.70;;
13034;SDS011;6584;48.022;11.810;2022-08-05T14:44:38;6.45;;;3.75;;
13034;SDS011;6584;48.022;11.810;2022-08-05T14:47:03;10.60;;;3.78;;
13034;SDS011;6584;48.022;11.810;2022-08-05T14:49:29;4.78;;;3.92;;
13034;SDS011;6584;48.022;11.810;2022-08-05T14:51:55;6.40;;;3.95;;
13034;SDS011;6584;48.022;11.810;2022-08-05T14:54:20;9.60;;;3.90;;
13034;SDS011;6584;48.022;11.810;2022-08-05T14:56:46;5.78;;;4.10;;
13034;SDS011;6584;48.022;11.810;2022-08-05T14:59:11;6.70;;;3.65;;
13034;SDS011;6584;48.022;11.810;2022-08-05T15:01:38;5.95;;;3.65;;
13034;SDS011;6584;48.022;11.810;2022-08-05T15:04:05;6.05;;;3.63;;
13034;SDS011;6584;48.022;11.810;2022-08-05T15:06:33;5.75;;;3.60;;
13034;SDS011;6584;48.022;11.810;2022-08-05T15:08:59;8.65;;;4.03;;
13034;SDS011;6584;48.022;11.810;2022-08-05T15:11:25;4.93;;;4.05;;
13034;SDS011;6584;48.022;11.810;2022-08-05T15:13:51;4.95;;;3.72;;
13034;SDS011;6584;48.022;11.810;2022-08-05T15:16:16;5.25;;;3.83;;
13034;SDS011;6584;48.022;11.810;2022-08-05T15:18:42;5.90;;;3.72;;
13034;SDS011;6584;48.022;11.810;2022-08-05T15:21:08;8.40;;;4.07;;
13034;SDS011;6584;48.022;11.810;2022-08-05T15:23:33;5.93;;;4.13;;
13034;SDS011;6584;48.022;11.810;2022-08-05T15:25:59;5.65;;;3.80;;
13034;SDS011;6584;48.022;11.810;2022-08-05T15:28:24;4.55;;;3.50;;
13034;SDS011;6584;48.022;11.810;2022-08-05T15:30:50;6.60;;;4.18;;